sensor_id;sensor_type;location;lat;lon;timestamp;P1;durP1;ratioP1;P2;durP2;ratioP2
2452;SDS011;63678;47.994;7.854;2023-05-29T00:02:24;13.63;;;6.20;;
2452;SDS011;63678;47.994;7.854;2023-05-29T00:04:57;13.40;;;6.00;;
2452;SDS011;63678;47.994;7.854;2023-05-29T00:07:29;13.20;;;6.22;;
2452;SDS011;63678;47.994;7.854;2023-05-29T00:10:02;11.20;;;5.55;;
2452;SDS011;63678;47.994;7.854;2023-05-29T00:12:36;11.95;;;6.20;;
2452;SDS011;63678;47.994;7.854;2023-05-29T00:15:09;13.50;;;6.22;;
2452;SDS011;63678;47.994;7.854;2023-05-29T00:17:42;13.67;;;5.90;;
2452;SDS011;63678;47.994;7.854;2023-05-29T00:20:15;13.00;;;6.32;;
2452;SDS011;63678;47.994;7.854;2023-05-29T00:22:47;14.88;;;6.40;;
2452;SDS011;63678;47.994;7.854;2023-05-29T00:25:20;13.85;;;6.07;;
2452;SDS011;63678;47.994;7.854;2023-05-29T00:27:52;12.52;;;5.82;;
2452;SDS011;63678;47.994;7.854;2023-05-29T00:30:25;14.67;;;6.67;;
2452;SDS011;63678;47.994;7.854;2023-05-29T00:32:57;12.63;;;6.78;;
2452;SDS011;63678;47.994;7.854;2023-05-29T00:35:30;12.63;;;6.32;;
2452;SDS011;63678;47.994;7.854;2023-05-29T00:38:03;11.55;;;6.10;;
2452;SDS011;63678;47.994;7.854;2023-05-29T00:40:36;12.15;;;5.70;;
2452;SDS011;63678;47.994;7.854;2023-05-29T00:43:10;11.77;;;5.97;;
2452;SDS011;63678;47.994;7.854;2023-05-29T00:45:44;11.55;;;5.85;;
2452;SDS011;63678;47.994;7.854;2023-05-29T00:48:16;11.75;;;6.57;;
2452;SDS011;63678;47.994;7.854;2023-05-29T00:50:49;16.13;;;6.07;;
2452;SDS011;63678;47.994;7.854;2023-05-29T00:53:22;15.18;;;6.30;;
2452;SDS011;63678;47.994;7.854;2023-05-29T00:55:56;13.60;;;6.57;;
2452;SDS011;63678;47.994;7.854;2023-05-29T00:58:30;13.20;;;6.10;;
2452;SDS011;63678;47.994;7.854;2023-05-29T01:01:03;11.65;;;6.22;;
2452;SDS011;63678;47.994;7.854;2023-05-29T01:03:36;15.40;;;5.88;;
2452;SDS011;63678;47.994;7.854;2023-05-29T01:06:09;11.75;;;6.35;;
2452;SDS011;63678;47.994;7.854;2023-05-29T01:08:42;12.90;;;6.23;;
2452;SDS011;63678;47.994;7.854;2023-05-29T01:11:21;13.95;;;6.50;;
2452;SDS011;63678;47.994;7.854;2023-05-29T01:14:33;16.67;;;6.75;;
2452;SDS011;63678;47.994;7.854;2023-05-29T01:21:20;12.73;;;5.70;;
2452;SDS011;63678;47.994;7.854;2023-05-29T01:24:03;11.73;;;5.83;;
2452;SDS011;63678;47.994;7.854;2023-05-29T01:29:38;13.00;;;6.72;;
2452;SDS011;63678;47.994;7.854;2023-05-29T01:32:14;11.45;;;6.10;;
2452;SDS011;63678;47.994;7.854;2023-05-29T01:35:07;11.45;;;6.32;;
2452;SDS011;63678;47.994;7.854;2023-05-29T01:37:40;14.80;;;5.87;;
2452;SDS011;63678;47.994;7.854;2023-05-29T01:40:13;16.30;;;5.93;;
2452;SDS011;63678;47.994;7.854;2023-05-29T01:42:45;11.48;;;6.22;;
2452;SDS011;63678;47.994;7.854;2023-05-29T01:45:17;12.27;;;6.40;;
2452;SDS011;63678;47.994;7.854;2023-05-29T01:47:50;11.70;;;6.05;;
2452;SDS011;63678;47.994;7.854;2023-05-29T01:50:23;12.13;;;5.60;;
2452;SDS011;63678;47.994;7.854;2023-05-29T01:52:56;10.68;;;5.75;;
2452;SDS011;63678;47.994;7.854;2023-05-29T01:55:28;11.98;;;5.78;;
2452;SDS011;63678;47.994;7.854;2023-05-29T01:58:01;13.75;;;6.13;;
2452;SDS011;63678;47.994;7.854;2023-05-29T02:00:35;11.65;;;6.00;;
2452;SDS011;63678;47.994;7.854;2023-05-29T02:03:07;12.73;;;6.40;;
2452;SDS011;63678;47.994;7.854;2023-05-29T02:05:41;13.77;;;5.90;;
2452;SDS011;63678;47.994;7.854;2023-05-29T02:08:14;11.60;;;6.05;;
2452;SDS011;63678;47.994;7.854;2023-05-29T02:10:46;11.07;;;5.60;;
2452;SDS011;63678;47.994;7.854;2023-05-29T02:13:19;14.07;;;6.28;;
2452;SDS011;63678;47.994;7.854;2023-05-29T02:15:52;11.93;;;5.60;;
2452;SDS011;63678;47.994;7.854;2023-05-29T02:18:26;11.25;;;6.15;;
2452;SDS011;63678;47.994;7.854;2023-05-29T02:20:59;12.20;;;5.80;;
2452;SDS011;63678;47.994;7.854;2023-05-29T02:23:32;13.52;;;5.82;;
2452;SDS011;63678;47.994;7.854;2023-05-29T02:26:04;13.57;;;6.00;;
2452;SDS011;63678;47.994;7.854;2023-05-29T02:28:36;13.10;;;5.90;;
2452;SDS011;63678;47.994;7.854;2023-05-29T02:31:09;11.65;;;5.57;;
2452;SDS011;63678;47.994;7.854;2023-05-29T02:33:41;11.57;;;5.88;;
2452;SDS011;63678;47.994;7.854;2023-05-29T02:36:15;13.73;;;6.00;;
2452;SDS011;63678;47.994;7.854;2023-05-29T02:38:48;12.60;;;6.53;;
2452;SDS011;63678;47.994;7.854;2023-05-29T02:41:21;12.90;;;5.93;;
2452;SDS011;63678;47.994;7.854;2023-05-29T02:43:54;14.60;;;5.97;;
2452;SDS011;63678;47.994;7.854;2023-05-29T02:46:27;11.80;;;6.13;;
2452;SDS011;63678;47.994;7.854;2023-05-29T02:48:59;12.57;;;5.90;;
2452;SDS011;63678;47.994;7.854;2023-05-29T02:51:32;12.60;;;5.78;;
2452;SDS011;63678;47.994;7.854;2023-05-29T02:54:04;10.48;;;5.93;;
2452;SDS011;63678;47.994;7.854;2023-05-29T02:56:37;12.60;;;6.15;;
2452;SDS011;63678;47.994;7.854;2023-05-29T02:59:09;10.98;;;5.72;;
2452;SDS011;63678;47.994;7.854;2023-05-29T03:01:42;11.70;;;6.30;;
2452;SDS011;63678;47.994;7.854;2023-05-29T03:04:14;10.98;;;5.68;;
2452;SDS011;63678;47.994;7.854;2023-05-29T03:06:46;11.60;;;5.75;;
2452;SDS011;63678;47.994;7.854;2023-05-29T03:09:19;14.32;;;6.22;;
2452;SDS011;63678;47.994;7.854;2023-05-29T03:11:51;14.82;;;5.97;;
2452;SDS011;63678;47.994;7.854;2023-05-29T03:14:24;15.57;;;6.22;;
2452;SDS011;63678;47.994;7.854;2023-05-29T03:16:56;13.27;;;6.28;;
2452;SDS011;63678;47.994;7.854;2023-05-29T03:19:28;12.95;;;6.00;;
2452;SDS011;63678;47.994;7.854;2023-05-29T03:22:01;14.27;;;6.80;;
2452;SDS011;63678;47.994;7.854;2023-05-29T03:24:34;11.75;;;6.70;;
2452;SDS011;63678;47.994;7.854;2023-05-29T03:27:06;13.20;;;6.57;;
2452;SDS011;63678;47.994;7.854;2023-05-29T03:29:41;12.18;;;6.38;;
2452;SDS011;63678;47.994;7.854;2023-05-29T03:32:15;16.92;;;6.90;;
2452;SDS011;63678;47.994;7.854;2023-05-29T03:34:48;13.07;;;5.72;;
2452;SDS011;63678;47.994;7.854;2023-05-29T03:37:20;17.88;;;6.00;;
2452;SDS011;63678;47.994;7.854;2023-05-29T03:39:52;13.85;;;5.72;;
2452;SDS011;63678;47.994;7.854;2023-05-29T03:42:25;14.82;;;6.68;;
2452;SDS011;63678;47.994;7.854;2023-05-29T03:44:59;12.82;;;6.13;;
2452;SDS011;63678;47.994;7.854;2023-05-29T03:47:32;13.15;;;7.05;;
2452;SDS011;63678;47.994;7.854;2023-05-29T03:50:05;14.50;;;6.88;;
2452;SDS011;63678;47.994;7.854;2023-05-29T03:52:40;12.18;;;5.97;;
2452;SDS011;63678;47.994;7.854;2023-05-29T03:55:13;12.43;;;6.28;;
2452;SDS011;63678;47.994;7.854;2023-05-29T03:57:47;14.07;;;6.40;;
2452;SDS011;63678;47.994;7.854;2023-05-29T04:00:20;14.07;;;5.72;;
2452;SDS011;63678;47.994;7.854;2023-05-29T04:02:54;11.52;;;5.72;;
2452;SDS011;63678;47.994;7.854;2023-05-29T04:05:28;12.82;;;6.03;;
2452;SDS011;63678;47.994;7.854;2023-05-29T04:08:01;12.73;;;6.25;;
2452;SDS011;63678;47.994;7.854;2023-05-29T04:10:46;14.00;;;5.97;;
2452;SDS011;63678;47.994;7.854;2023-05-29T04:13:19;14.40;;;6.45;;
2452;SDS011;63678;47.994;7.854;2023-05-29T04:15:52;16.50;;;6.65;;
2452;SDS011;63678;47.994;7.854;2023-05-29T04:18:26;12.38;;;6.05;;
2452;SDS011;63678;47.994;7.854;2023-05-29T04:20:59;13.07;;;5.97;;
2452;SDS011;63678;47.994;7.854;2023-05-29T04:23:31;11.60;;;6.47;;
2452;SDS011;63678;47.994;7.854;2023-05-29T04:26:03;13.60;;;5.85;;
2452;SDS011;63678;47.994;7.854;2023-05-29T04:28:39;12.07;;;5.82;;
2452;SDS011;63678;47.994;7.854;2023-05-29T04:31:11;12.65;;;5.82;;
2452;SDS011;63678;47.994;7.854;2023-05-29T04:33:45;16.80;;;6.65;;
2452;SDS011;63678;47.994;7.854;2023-05-29T04:36:18;18.03;;;6.93;;
2452;SDS011;63678;47.994;7.854;2023-05-29T04:38:52;13.40;;;6.55;;
2452;SDS011;63678;47.994;7.854;2023-05-29T04:41:26;13.75;;;7.10;;
2452;SDS011;63678;47.994;7.854;2023-05-29T04:44:04;13.60;;;7.00;;
2452;SDS011;63678;47.994;7.854;2023-05-29T04:46:47;13.98;;;6.70;;
2452;SDS011;63678;47.994;7.854;2023-05-29T04:49:20;16.17;;;7.30;;
2452;SDS011;63678;47.994;7.854;2023-05-29T04:51:53;11.10;;;6.57;;
2452;SDS011;63678;47.994;7.854;2023-05-29T04:54:25;14.27;;;6.88;;
2452;SDS011;63678;47.994;7.854;2023-05-29T04:56:59;11.55;;;6.15;;
2452;SDS011;63678;47.994;7.854;2023-05-29T04:59:37;15.18;;;6.75;;
2452;SDS011;63678;47.994;7.854;2023-05-29T05:02:09;15.67;;;7.50;;
2452;SDS011;63678;47.994;7.854;2023-05-29T05:04:43;14.63;;;7.10;;
2452;SDS011;63678;47.994;7.854;2023-05-29T05:07:17;12.43;;;6.57;;
2452;SDS011;63678;47.994;7.854;2023-05-29T05:09:50;13.75;;;7.50;;
2452;SDS011;63678;47.994;7.854;2023-05-29T05:12:29;12.85;;;6.82;;
2452;SDS011;63678;47.994;7.854;2023-05-29T05:15:03;13.30;;;7.30;;
2452;SDS011;63678;47.994;7.854;2023-05-29T05:17:38;18.77;;;7.40;;
2452;SDS011;63678;47.994;7.854;2023-05-29T05:20:11;14.25;;;7.50;;
2452;SDS011;63678;47.994;7.854;2023-05-29T05:22:44;16.63;;;7.00;;
2452;SDS011;63678;47.994;7.854;2023-05-29T05:25:17;17.15;;;7.30;;
2452;SDS011;63678;47.994;7.854;2023-05-29T05:27:50;12.00;;;6.43;;
2452;SDS011;63678;47.994;7.854;2023-05-29T05:30:24;15.05;;;6.65;;
2452;SDS011;63678;47.994;7.854;2023-05-29T05:32:58;15.02;;;6.50;;
2452;SDS011;63678;47.994;7.854;2023-05-29T05:35:30;12.88;;;6.45;;
2452;SDS011;63678;47.994;7.854;2023-05-29T05:38:03;16.52;;;6.53;;
2452;SDS011;63678;47.994;7.854;2023-05-29T05:40:36;18.53;;;7.53;;
2452;SDS011;63678;47.994;7.854;2023-05-29T05:43:17;14.13;;;6.45;;
2452;SDS011;63678;47.994;7.854;2023-05-29T05:46:09;12.80;;;6.55;;
2452;SDS011;63678;47.994;7.854;2023-05-29T05:48:41;11.60;;;6.13;;
2452;SDS011;63678;47.994;7.854;2023-05-29T05:51:14;13.85;;;6.72;;
2452;SDS011;63678;47.994;7.854;2023-05-29T05:53:47;14.90;;;6.80;;
2452;SDS011;63678;47.994;7.854;2023-05-29T05:56:19;14.23;;;6.57;;
2452;SDS011;63678;47.994;7.854;2023-05-29T05:58:52;12.60;;;7.10;;
2452;SDS011;63678;47.994;7.854;2023-05-29T06:01:24;13.65;;;6.60;;
2452;SDS011;63678;47.994;7.854;2023-05-29T06:03:57;14.60;;;6.15;;
2452;SDS011;63678;47.994;7.854;2023-05-29T06:06:29;10.53;;;6.07;;
2452;SDS011;63678;47.994;7.854;2023-05-29T06:09:03;13.52;;;6.43;;
2452;SDS011;63678;47.994;7.854;2023-05-29T06:11:36;14.27;;;6.30;;
2452;SDS011;63678;47.994;7.854;2023-05-29T06:14:09;12.82;;;6.55;;
2452;SDS011;63678;47.994;7.854;2023-05-29T06:16:42;18.27;;;7.32;;
2452;SDS011;63678;47.994;7.854;2023-05-29T06:19:15;15.33;;;7.20;;
2452;SDS011;63678;47.994;7.854;2023-05-29T06:22:01;13.32;;;6.63;;
2452;SDS011;63678;47.994;7.854;2023-05-29T06:24:37;13.05;;;6.90;;
2452;SDS011;63678;47.994;7.854;2023-05-29T06:27:09;13.27;;;6.72;;
2452;SDS011;63678;47.994;7.854;2023-05-29T06:29:42;14.93;;;7.38;;
2452;SDS011;63678;47.994;7.854;2023-05-29T06:32:14;16.20;;;6.97;;
2452;SDS011;63678;47.994;7.854;2023-05-29T06:34:47;13.40;;;6.97;;
2452;SDS011;63678;47.994;7.854;2023-05-29T06:37:19;12.23;;;6.97;;
2452;SDS011;63678;47.994;7.854;2023-05-29T06:39:52;11.65;;;6.45;;
2452;SDS011;63678;47.994;7.854;2023-05-29T06:42:24;13.15;;;6.30;;
2452;SDS011;63678;47.994;7.854;2023-05-29T06:45:02;14.63;;;7.00;;
2452;SDS011;63678;47.994;7.854;2023-05-29T06:47:35;13.23;;;7.25;;
2452;SDS011;63678;47.994;7.854;2023-05-29T06:50:08;14.07;;;6.93;;
2452;SDS011;63678;47.994;7.854;2023-05-29T06:52:42;13.20;;;6.80;;
2452;SDS011;63678;47.994;7.854;2023-05-29T06:55:30;12.15;;;6.57;;
2452;SDS011;63678;47.994;7.854;2023-05-29T06:58:02;12.77;;;6.67;;
2452;SDS011;63678;47.994;7.854;2023-05-29T07:00:34;18.20;;;6.30;;
2452;SDS011;63678;47.994;7.854;2023-05-29T07:03:32;11.23;;;6.30;;
2452;SDS011;63678;47.994;7.854;2023-05-29T07:06:07;10.45;;;6.38;;
2452;SDS011;63678;47.994;7.854;2023-05-29T07:08:39;11.68;;;6.35;;
2452;SDS011;63678;47.994;7.854;2023-05-29T07:11:12;12.37;;;6.17;;
2452;SDS011;63678;47.994;7.854;2023-05-29T07:13:44;13.15;;;6.22;;
2452;SDS011;63678;47.994;7.854;2023-05-29T07:16:18;13.38;;;6.70;;
2452;SDS011;63678;47.994;7.854;2023-05-29T07:19:06;14.32;;;6.60;;
2452;SDS011;63678;47.994;7.854;2023-05-29T07:21:50;13.40;;;6.40;;
2452;SDS011;63678;47.994;7.854;2023-05-29T07:24:25;12.60;;;6.60;;
2452;SDS011;63678;47.994;7.854;2023-05-29T07:26:58;12.10;;;6.15;;
2452;SDS011;63678;47.994;7.854;2023-05-29T07:29:30;13.05;;;6.72;;
2452;SDS011;63678;47.994;7.854;2023-05-29T07:32:02;10.98;;;6.03;;
2452;SDS011;63678;47.994;7.854;2023-05-29T07:34:35;11.93;;;6.82;;
2452;SDS011;63678;47.994;7.854;2023-05-29T07:37:08;13.07;;;6.30;;
2452;SDS011;63678;47.994;7.854;2023-05-29T07:39:42;10.15;;;5.82;;
2452;SDS011;63678;47.994;7.854;2023-05-29T07:42:44;11.38;;;6.43;;
2452;SDS011;63678;47.994;7.854;2023-05-29T07:45:17;11.30;;;6.63;;
2452;SDS011;63678;47.994;7.854;2023-05-29T07:47:50;14.15;;;6.43;;
2452;SDS011;63678;47.994;7.854;2023-05-29T07:50:22;11.60;;;6.17;;
2452;SDS011;63678;47.994;7.854;2023-05-29T07:52:55;14.85;;;6.50;;
2452;SDS011;63678;47.994;7.854;2023-05-29T07:55:28;11.85;;;6.25;;
2452;SDS011;63678;47.994;7.854;2023-05-29T07:58:01;12.82;;;6.80;;
2452;SDS011;63678;47.994;7.854;2023-05-29T08:00:33;10.98;;;6.43;;
2452;SDS011;63678;47.994;7.854;2023-05-29T08:03:07;12.23;;;6.50;;
2452;SDS011;63678;47.994;7.854;2023-05-29T08:05:59;12.02;;;6.38;;
2452;SDS011;63678;47.994;7.854;2023-05-29T08:08:33;10.57;;;6.38;;
2452;SDS011;63678;47.994;7.854;2023-05-29T08:11:05;12.20;;;6.00;;
2452;SDS011;63678;47.994;7.854;2023-05-29T08:13:38;11.18;;;6.15;;
2452;SDS011;63678;47.994;7.854;2023-05-29T08:16:10;14.57;;;6.03;;
2452;SDS011;63678;47.994;7.854;2023-05-29T08:18:45;14.77;;;6.13;;
2452;SDS011;63678;47.994;7.854;2023-05-29T08:21:18;10.90;;;5.50;;
2452;SDS011;63678;47.994;7.854;2023-05-29T08:23:51;9.93;;;5.70;;
2452;SDS011;63678;47.994;7.854;2023-05-29T08:26:23;12.35;;;6.15;;
2452;SDS011;63678;47.994;7.854;2023-05-29T08:28:55;11.03;;;6.50;;
2452;SDS011;63678;47.994;7.854;2023-05-29T08:31:29;11.75;;;5.45;;
2452;SDS011;63678;47.994;7.854;2023-05-29T08:34:02;11.30;;;5.88;;
2452;SDS011;63678;47.994;7.854;2023-05-29T08:36:34;11.73;;;5.70;;
2452;SDS011;63678;47.994;7.854;2023-05-29T08:39:07;10.75;;;5.93;;
2452;SDS011;63678;47.994;7.854;2023-05-29T08:44:39;9.65;;;5.35;;
2452;SDS011;63678;47.994;7.854;2023-05-29T08:47:12;12.73;;;6.07;;
2452;SDS011;63678;47.994;7.854;2023-05-29T08:49:52;9.90;;;5.15;;
2452;SDS011;63678;47.994;7.854;2023-05-29T08:52:25;10.68;;;5.20;;
2452;SDS011;63678;47.994;7.854;2023-05-29T08:54:58;11.63;;;5.70;;
2452;SDS011;63678;47.994;7.854;2023-05-29T08:57:32;9.35;;;5.25;;
2452;SDS011;63678;47.994;7.854;2023-05-29T09:00:06;9.80;;;5.55;;
2452;SDS011;63678;47.994;7.854;2023-05-29T09:02:44;8.52;;;5.10;;
2452;SDS011;63678;47.994;7.854;2023-05-29T09:05:16;10.20;;;5.20;;
2452;SDS011;63678;47.994;7.854;2023-05-29T09:07:48;11.03;;;5.17;;
2452;SDS011;63678;47.994;7.854;2023-05-29T09:10:21;9.65;;;5.22;;
2452;SDS011;63678;47.994;7.854;2023-05-29T09:12:59;9.77;;;4.93;;
2452;SDS011;63678;47.994;7.854;2023-05-29T09:15:32;10.38;;;4.95;;
2452;SDS011;63678;47.994;7.854;2023-05-29T09:18:05;9.30;;;5.47;;
2452;SDS011;63678;47.994;7.854;2023-05-29T09:20:38;10.40;;;5.53;;
2452;SDS011;63678;47.994;7.854;2023-05-29T09:23:11;8.98;;;4.80;;
2452;SDS011;63678;47.994;7.854;2023-05-29T09:25:43;10.50;;;4.88;;
2452;SDS011;63678;47.994;7.854;2023-05-29T09:28:17;11.05;;;5.10;;
2452;SDS011;63678;47.994;7.854;2023-05-29T09:30:51;9.02;;;4.90;;
2452;SDS011;63678;47.994;7.854;2023-05-29T09:33:24;9.43;;;5.03;;
2452;SDS011;63678;47.994;7.854;2023-05-29T09:36:00;9.73;;;5.10;;
2452;SDS011;63678;47.994;7.854;2023-05-29T09:38:32;9.52;;;4.88;;
2452;SDS011;63678;47.994;7.854;2023-05-29T09:41:08;10.05;;;5.47;;
2452;SDS011;63678;47.994;7.854;2023-05-29T09:43:41;9.02;;;4.70;;
2452;SDS011;63678;47.994;7.854;2023-05-29T09:46:20;7.80;;;4.90;;
2452;SDS011;63678;47.994;7.854;2023-05-29T09:48:53;9.50;;;5.20;;
2452;SDS011;63678;47.994;7.854;2023-05-29T09:51:26;8.88;;;4.65;;
2452;SDS011;63678;47.994;7.854;2023-05-29T09:53:58;8.77;;;5.45;;
2452;SDS011;63678;47.994;7.854;2023-05-29T09:56:32;11.20;;;5.60;;
2452;SDS011;63678;47.994;7.854;2023-05-29T09:59:06;10.93;;;5.23;;
2452;SDS011;63678;47.994;7.854;2023-05-29T10:01:41;9.13;;;4.90;;
2452;SDS011;63678;47.994;7.854;2023-05-29T10:04:18;10.40;;;5.40;;
2452;SDS011;63678;47.994;7.854;2023-05-29T10:06:50;10.20;;;5.13;;
2452;SDS011;63678;47.994;7.854;2023-05-29T10:09:24;9.20;;;5.13;;
2452;SDS011;63678;47.994;7.854;2023-05-29T10:12:02;10.10;;;5.20;;
2452;SDS011;63678;47.994;7.854;2023-05-29T10:14:39;11.15;;;5.00;;
2452;SDS011;63678;47.994;7.854;2023-05-29T10:17:13;10.50;;;4.75;;
2452;SDS011;63678;47.994;7.854;2023-05-29T10:19:47;9.45;;;5.03;;
2452;SDS011;63678;47.994;7.854;2023-05-29T10:22:22;13.50;;;5.88;;
2452;SDS011;63678;47.994;7.854;2023-05-29T10:24:57;10.70;;;5.63;;
2452;SDS011;63678;47.994;7.854;2023-05-29T10:27:32;10.50;;;5.13;;
2452;SDS011;63678;47.994;7.854;2023-05-29T10:30:06;10.15;;;5.13;;
2452;SDS011;63678;47.994;7.854;2023-05-29T10:32:56;13.25;;;5.57;;
2452;SDS011;63678;47.994;7.854;2023-05-29T10:36:14;10.85;;;4.70;;
2452;SDS011;63678;47.994;7.854;2023-05-29T10:38:54;9.67;;;5.20;;
2452;SDS011;63678;47.994;7.854;2023-05-29T10:44:00;10.13;;;4.65;;
2452;SDS011;63678;47.994;7.854;2023-05-29T10:49:22;9.65;;;4.82;;
2452;SDS011;63678;47.994;7.854;2023-05-29T10:51:55;19.60;;;5.13;;
2452;SDS011;63678;47.994;7.854;2023-05-29T10:54:39;10.70;;;5.25;;
2452;SDS011;63678;47.994;7.854;2023-05-29T10:57:14;10.02;;;4.28;;
2452;SDS011;63678;47.994;7.854;2023-05-29T10:59:46;8.35;;;4.40;;
2452;SDS011;63678;47.994;7.854;2023-05-29T11:02:21;8.88;;;4.40;;
2452;SDS011;63678;47.994;7.854;2023-05-29T11:05:04;7.93;;;4.90;;
2452;SDS011;63678;47.994;7.854;2023-05-29T11:13:25;8.25;;;4.68;;
2452;SDS011;63678;47.994;7.854;2023-05-29T11:19:10;9.23;;;5.10;;
2452;SDS011;63678;47.994;7.854;2023-05-29T11:24:27;8.75;;;5.05;;
2452;SDS011;63678;47.994;7.854;2023-05-29T11:27:01;9.23;;;4.80;;
2452;SDS011;63678;47.994;7.854;2023-05-29T11:29:38;11.05;;;4.78;;
2452;SDS011;63678;47.994;7.854;2023-05-29T11:32:12;10.00;;;5.27;;
2452;SDS011;63678;47.994;7.854;2023-05-29T11:34:48;8.90;;;5.35;;
2452;SDS011;63678;47.994;7.854;2023-05-29T11:37:23;9.48;;;4.97;;
2452;SDS011;63678;47.994;7.854;2023-05-29T11:39:56;8.20;;;4.75;;
2452;SDS011;63678;47.994;7.854;2023-05-29T11:42:28;9.02;;;5.30;;
2452;SDS011;63678;47.994;7.854;2023-05-29T11:45:23;8.10;;;4.70;;
2452;SDS011;63678;47.994;7.854;2023-05-29T11:47:59;12.73;;;4.88;;
2452;SDS011;63678;47.994;7.854;2023-05-29T11:50:35;8.35;;;4.93;;
2452;SDS011;63678;47.994;7.854;2023-05-29T11:53:09;8.60;;;4.93;;
2452;SDS011;63678;47.994;7.854;2023-05-29T11:55:43;10.40;;;5.50;;
2452;SDS011;63678;47.994;7.854;2023-05-29T11:58:15;10.70;;;5.37;;
2452;SDS011;63678;47.994;7.854;2023-05-29T12:00:48;9.07;;;5.00;;
2452;SDS011;63678;47.994;7.854;2023-05-29T12:03:22;8.65;;;5.00;;
2452;SDS011;63678;47.994;7.854;2023-05-29T12:05:55;8.32;;;4.90;;
2452;SDS011;63678;47.994;7.854;2023-05-29T12:08:28;8.90;;;4.82;;
2452;SDS011;63678;47.994;7.854;2023-05-29T12:11:01;9.00;;;5.17;;
2452;SDS011;63678;47.994;7.854;2023-05-29T12:13:34;9.00;;;4.90;;
2452;SDS011;63678;47.994;7.854;2023-05-29T12:16:06;10.02;;;5.15;;
2452;SDS011;63678;47.994;7.854;2023-05-29T12:18:39;11.07;;;5.60;;
2452;SDS011;63678;47.994;7.854;2023-05-29T12:21:12;10.52;;;4.55;;
2452;SDS011;63678;47.994;7.854;2023-05-29T12:23:45;7.70;;;5.03;;
2452;SDS011;63678;47.994;7.854;2023-05-29T12:26:18;9.82;;;4.82;;
2452;SDS011;63678;47.994;7.854;2023-05-29T12:28:54;7.68;;;4.53;;
2452;SDS011;63678;47.994;7.854;2023-05-29T12:31:27;11.52;;;4.97;;
2452;SDS011;63678;47.994;7.854;2023-05-29T12:34:01;11.85;;;5.13;;
2452;SDS011;63678;47.994;7.854;2023-05-29T12:36:44;9.67;;;5.23;;
2452;SDS011;63678;47.994;7.854;2023-05-29T12:39:16;9.05;;;4.82;;
2452;SDS011;63678;47.994;7.854;2023-05-29T12:41:49;8.18;;;4.68;;
2452;SDS011;63678;47.994;7.854;2023-05-29T12:44:26;10.70;;;5.45;;
2452;SDS011;63678;47.994;7.854;2023-05-29T12:46:59;9.13;;;4.88;;
2452;SDS011;63678;47.994;7.854;2023-05-29T12:49:35;9.70;;;5.07;;
2452;SDS011;63678;47.994;7.854;2023-05-29T12:52:08;10.43;;;4.90;;
2452;SDS011;63678;47.994;7.854;2023-05-29T12:54:43;9.25;;;4.78;;
2452;SDS011;63678;47.994;7.854;2023-05-29T12:57:16;11.35;;;6.30;;
2452;SDS011;63678;47.994;7.854;2023-05-29T12:59:48;9.02;;;5.25;;
2452;SDS011;63678;47.994;7.854;2023-05-29T13:02:21;9.03;;;4.93;;
2452;SDS011;63678;47.994;7.854;2023-05-29T13:04:53;9.23;;;5.18;;
2452;SDS011;63678;47.994;7.854;2023-05-29T13:07:26;7.93;;;4.72;;
2452;SDS011;63678;47.994;7.854;2023-05-29T13:10:00;10.02;;;4.97;;
2452;SDS011;63678;47.994;7.854;2023-05-29T13:12:34;8.73;;;4.70;;
2452;SDS011;63678;47.994;7.854;2023-05-29T13:15:07;11.00;;;5.10;;
2452;SDS011;63678;47.994;7.854;2023-05-29T13:17:41;9.75;;;5.40;;
2452;SDS011;63678;47.994;7.854;2023-05-29T13:20:15;8.32;;;5.00;;
2452;SDS011;63678;47.994;7.854;2023-05-29T13:22:48;8.82;;;5.00;;
2452;SDS011;63678;47.994;7.854;2023-05-29T13:25:21;9.27;;;4.68;;
2452;SDS011;63678;47.994;7.854;2023-05-29T13:27:55;8.33;;;5.10;;
2452;SDS011;63678;47.994;7.854;2023-05-29T13:30:28;10.60;;;5.28;;
2452;SDS011;63678;47.994;7.854;2023-05-29T13:33:00;10.20;;;5.00;;
2452;SDS011;63678;47.994;7.854;2023-05-29T13:35:33;8.55;;;5.43;;
2452;SDS011;63678;47.994;7.854;2023-05-29T13:38:08;11.00;;;5.28;;
2452;SDS011;63678;47.994;7.854;2023-05-29T13:40:41;9.60;;;5.33;;
2452;SDS011;63678;47.994;7.854;2023-05-29T13:43:13;8.57;;;4.80;;
2452;SDS011;63678;47.994;7.854;2023-05-29T13:45:45;12.85;;;5.32;;
2452;SDS011;63678;47.994;7.854;2023-05-29T13:48:18;11.50;;;4.47;;
2452;SDS011;63678;47.994;7.854;2023-05-29T13:50:50;8.90;;;5.10;;
2452;SDS011;63678;47.994;7.854;2023-05-29T13:53:23;9.30;;;4.97;;
2452;SDS011;63678;47.994;7.854;2023-05-29T13:55:55;11.32;;;5.07;;
2452;SDS011;63678;47.994;7.854;2023-05-29T13:58:28;9.45;;;4.85;;
2452;SDS011;63678;47.994;7.854;2023-05-29T14:01:01;10.27;;;5.47;;
2452;SDS011;63678;47.994;7.854;2023-05-29T14:03:33;9.20;;;5.25;;
2452;SDS011;63678;47.994;7.854;2023-05-29T14:06:06;10.43;;;5.10;;
2452;SDS011;63678;47.994;7.854;2023-05-29T14:08:39;9.13;;;5.15;;
2452;SDS011;63678;47.994;7.854;2023-05-29T14:11:17;10.05;;;5.15;;
2452;SDS011;63678;47.994;7.854;2023-05-29T14:13:50;8.93;;;4.90;;
2452;SDS011;63678;47.994;7.854;2023-05-29T14:16:22;9.07;;;5.25;;
2452;SDS011;63678;47.994;7.854;2023-05-29T14:18:55;9.60;;;4.93;;
2452;SDS011;63678;47.994;7.854;2023-05-29T14:21:28;10.50;;;5.25;;
2452;SDS011;63678;47.994;7.854;2023-05-29T14:24:01;8.57;;;5.30;;
2452;SDS011;63678;47.994;7.854;2023-05-29T14:26:34;8.50;;;5.13;;
2452;SDS011;63678;47.994;7.854;2023-05-29T14:29:06;11.35;;;5.47;;
2452;SDS011;63678;47.994;7.854;2023-05-29T14:31:45;10.20;;;5.07;;
2452;SDS011;63678;47.994;7.854;2023-05-29T14:34:18;9.40;;;4.93;;
2452;SDS011;63678;47.994;7.854;2023-05-29T14:36:51;9.02;;;5.78;;
2452;SDS011;63678;47.994;7.854;2023-05-29T14:39:24;9.57;;;4.63;;
2452;SDS011;63678;47.994;7.854;2023-05-29T14:41:56;9.77;;;5.20;;
2452;SDS011;63678;47.994;7.854;2023-05-29T14:44:29;9.97;;;5.13;;
2452;SDS011;63678;47.994;7.854;2023-05-29T14:47:01;8.50;;;5.13;;
2452;SDS011;63678;47.994;7.854;2023-05-29T14:49:34;8.30;;;4.40;;
2452;SDS011;63678;47.994;7.854;2023-05-29T14:52:06;12.00;;;5.22;;
2452;SDS011;63678;47.994;7.854;2023-05-29T14:54:39;9.32;;;4.80;;
2452;SDS011;63678;47.994;7.854;2023-05-29T14:57:12;11.37;;;4.93;;
2452;SDS011;63678;47.994;7.854;2023-05-29T14:59:44;9.13;;;5.32;;
2452;SDS011;63678;47.994;7.854;2023-05-29T15:02:17;9.23;;;5.28;;
2452;SDS011;63678;47.994;7.854;2023-05-29T15:04:50;10.77;;;5.05;;
2452;SDS011;63678;47.994;7.854;2023-05-29T15:07:43;9.13;;;5.10;;
2452;SDS011;63678;47.994;7.854;2023-05-29T15:10:15;8.90;;;4.73;;
2452;SDS011;63678;47.994;7.854;2023-05-29T15:12:55;9.23;;;5.00;;
2452;SDS011;63678;47.994;7.854;2023-05-29T15:15:30;8.98;;;5.00;;
2452;SDS011;63678;47.994;7.854;2023-05-29T15:18:18;9.43;;;5.03;;
2452;SDS011;63678;47.994;7.854;2023-05-29T15:20:51;8.25;;;4.80;;
2452;SDS011;63678;47.994;7.854;2023-05-29T15:23:25;11.57;;;5.03;;
2452;SDS011;63678;47.994;7.854;2023-05-29T15:25:57;8.68;;;4.90;;
2452;SDS011;63678;47.994;7.854;2023-05-29T15:28:30;13.40;;;5.30;;
2452;SDS011;63678;47.994;7.854;2023-05-29T15:31:03;15.75;;;5.15;;
2452;SDS011;63678;47.994;7.854;2023-05-29T15:33:35;13.80;;;4.72;;
2452;SDS011;63678;47.994;7.854;2023-05-29T15:36:08;8.67;;;4.40;;
2452;SDS011;63678;47.994;7.854;2023-05-29T15:38:40;9.25;;;4.80;;
2452;SDS011;63678;47.994;7.854;2023-05-29T15:41:13;9.18;;;4.80;;
2452;SDS011;63678;47.994;7.854;2023-05-29T15:43:46;11.38;;;5.15;;
2452;SDS011;63678;47.994;7.854;2023-05-29T15:46:19;9.23;;;4.72;;
2452;SDS011;63678;47.994;7.854;2023-05-29T15:48:51;9.93;;;4.97;;
2452;SDS011;63678;47.994;7.854;2023-05-29T15:51:24;9.95;;;5.18;;
2452;SDS011;63678;47.994;7.854;2023-05-29T15:53:56;8.07;;;4.60;;
2452;SDS011;63678;47.994;7.854;2023-05-29T15:56:30;10.02;;;5.05;;
2452;SDS011;63678;47.994;7.854;2023-05-29T15:59:02;8.45;;;4.65;;
2452;SDS011;63678;47.994;7.854;2023-05-29T16:01:36;7.83;;;4.97;;